createdAt,value
2022-08-08T00:02:04.259Z,97868.42140320373
2022-08-08T00:04:27.901Z,97868.15412913257
2022-08-08T00:07:25.893Z,97860.1262619058
2022-08-08T00:11:24.388Z,97853.30711851163
2022-08-08T00:14:59.260Z,97852.0061042442
2022-08-08T00:17:26.358Z,97850.33497107011
2022-08-08T00:21:26.138Z,97848.46464768442
2022-08-08T00:24:24.083Z,97850.48704622062
2022-08-08T00:27:20.179Z,97846.15073615174
2022-08-08T00:32:15.497Z,97842.6670985568
2022-08-08T00:52:48.887Z,97840.23789793691
2022-08-08T00:54:35.507Z,97840.73984422107
2022-08-08T00:57:40.429Z,97835.80468800945
2022-08-08T01:01:37.785Z,97838.12068405855
2022-08-08T01:05:09.605Z,97844.08167676082
2022-08-08T01:07:55.298Z,97839.31335197084
2022-08-08T01:12:03.630Z,97833.71679515582
2022-08-08T01:14:53.566Z,97836.56980044334
2022-08-08T01:18:16.186Z,97839.0975931211
2022-08-08T01:22:12.217Z,97835.204683225
2022-08-08T01:41:27.932Z,97842.77636552768
2022-08-08T01:44:31.847Z,97847.08605475412
2022-08-08T01:48:14.873Z,97854.30182074859
2022-08-08T01:52:33.469Z,97854.7467911701
2022-08-08T01:55:26.698Z,97852.37419435452
2022-08-08T01:57:33.798Z,97848.16412638832
2022-08-08T02:01:23.505Z,97851.48315844467
2022-08-08T02:04:23.821Z,97856.03463957417
2022-08-08T02:07:25.409Z,97853.32423318629
2022-08-08T02:11:52.756Z,97854.2670488754
2022-08-08T02:14:29.118Z,97852.73210485037
2022-08-08T02:17:24.795Z,97849.7676016851
2022-08-08T02:31:59.343Z,97839.47216322475
2022-08-08T02:34:32.938Z,97838.65493553647
2022-08-08T02:37:53.282Z,97836.50161095844
2022-08-08T02:42:04.470Z,97835.94342038897
2022-08-08T03:12:14.041Z,97819.03529832822
2022-08-08T03:15:57.189Z,97812.2846464299
2022-08-08T03:17:38.154Z,97814.52633906555
2022-08-08T03:42:11.794Z,97818.19779381805
2022-08-08T03:44:16.205Z,97817.9003175777
2022-08-08T03:47:21.976Z,97820.33082662438
2022-08-08T03:51:19.596Z,97823.53813341101
2022-08-08T03:54:40.822Z,97827.53889463854
2022-08-08T03:58:31.501Z,97828.04075049824
2022-08-08T04:01:23.445Z,97831.56982555962
2022-08-08T04:04:19.583Z,97832.04851754158
2022-08-08T04:07:16.962Z,97843.94620819692
2022-08-08T04:11:17.419Z,97838.46224496221
2022-08-08T04:14:35.606Z,97848.8085669938
2022-08-08T04:17:46.129Z,97849.97236153217
2022-08-08T04:21:23.116Z,97855.39488068911
2022-08-08T04:24:29.009Z,97860.05872802889
2022-08-08T04:27:19.706Z,97864.84866727696
2022-08-08T04:31:56.946Z,97867.68944978186
2022-08-08T04:41:17.838Z,97860.75305496826
2022-08-08T04:44:17.711Z,97863.35249206706
2022-08-08T04:47:17.214Z,97864.75720393026
2022-08-08T04:51:17.415Z,97865.38448669406
2022-08-08T04:54:40.374Z,97874.24923689006
2022-08-08T04:57:16.825Z,97871.81853039602
2022-08-08T05:01:15.698Z,97873.63644526458
2022-08-08T05:04:16.162Z,97882.23483957718
2022-08-08T05:07:16.341Z,97886.71636809425
2022-08-08T05:11:22.525Z,97887.63822572431
2022-08-08T05:14:16.258Z,97888.87265573969
2022-08-08T05:17:17.583Z,97892.56571944646
2022-08-08T05:21:19.386Z,97893.57296125582
2022-08-08T05:24:17.209Z,97891.83263452347
2022-08-08T05:27:16.910Z,97894.37453110912
2022-08-08T05:32:02.295Z,97893.41693628956
2022-08-08T05:34:24.052Z,97896.08627352181
2022-08-08T05:37:22.136Z,97897.201600949
2022-08-08T05:41:23.296Z,97895.31303027777
2022-08-08T05:44:30.972Z,97895.01144336954
2022-08-08T05:47:21.111Z,97891.20742778342
2022-08-08T05:51:16.516Z,97888.94137478017
2022-08-08T05:54:27.261Z,97884.48791873081
2022-08-08T05:57:20.954Z,97885.72752367216
2022-08-08T06:01:52.450Z,97885.5181929078
2022-08-08T06:04:23.782Z,97879.11412266779
2022-08-08T06:07:17.700Z,97878.47975365486
2022-08-08T06:11:16.674Z,97879.07503234563
2022-08-08T06:14:17.982Z,97876.77111343967
2022-08-08T06:17:19.920Z,97879.86037118641
2022-08-08T06:21:32.759Z,97876.35646512065
2022-08-08T06:24:23.081Z,97877.62755096715
2022-08-08T06:27:22.464Z,97876.78145738784
2022-08-08T06:31:19.410Z,97873.7040120358
2022-08-08T06:34:27.987Z,97877.14508691095
2022-08-08T06:37:24.809Z,97882.47184454059
2022-08-08T06:41:17.281Z,97884.44045328631
2022-08-08T06:44:22.894Z,97888.76749824664
2022-08-08T06:47:21.986Z,97886.98016974257
2022-08-08T06:51:16.394Z,97889.1549303325
2022-08-08T06:54:16.210Z,97893.6749889201
2022-08-08T06:57:16.330Z,97895.99820026854
2022-08-08T07:02:17.418Z,97899.69822654942
2022-08-08T07:04:40.077Z,97897.69409676414
2022-08-08T07:07:21.908Z,97900.36864384211
2022-08-08T07:11:22.549Z,97897.66622155311
2022-08-08T07:14:19.566Z,97896.51190682602
2022-08-08T07:17:20.184Z,97893.16417382835
2022-08-08T07:21:21.774Z,97892.12889997226
2022-08-08T07:24:24.643Z,97894.13655795342
2022-08-08T07:27:22.703Z,97891.51358806307
2022-08-08T07:31:19.771Z,97891.32941318661
2022-08-08T07:34:26.740Z,97891.15568245703
2022-08-08T07:37:21.221Z,97891.72416046669
2022-08-08T07:41:25.122Z,97887.99983230515
2022-08-08T07:44:40.805Z,97889.72212921304
2022-08-08T07:47:16.709Z,97884.56561746605
2022-08-08T07:51:23.817Z,97888.42201959346
2022-08-08T07:54:27.118Z,97889.9657494088
2022-08-08T07:57:27.257Z,97892.934917535
2022-08-08T08:01:27.241Z,97897.69906225862
2022-08-08T08:04:22.772Z,97902.27948063983
2022-08-08T08:07:17.314Z,97900.40524875552
2022-08-08T08:11:21.498Z,97898.17190829017
2022-08-08T08:14:22.099Z,97896.64045900645
2022-08-08T08:17:19.326Z,97901.83471161556
2022-08-08T08:21:18.943Z,97908.00878884146
2022-08-08T08:24:18.627Z,97904.78863416173
2022-08-08T08:27:17.735Z,97904.41931397827
2022-08-08T08:31:17.478Z,97903.65338888142
2022-08-08T08:34:17.198Z,97902.05195901828
2022-08-08T08:37:20.414Z,97910.46784724102
2022-08-08T08:41:30.866Z,97908.97904184337
2022-08-08T08:44:21.576Z,97911.2081976583
2022-08-08T08:47:22.003Z,97907.22824754266
2022-08-08T08:51:16.661Z,97916.56939124771
2022-08-08T08:54:25.373Z,97915.89423842604
2022-08-08T08:57:27.318Z,97917.82619514578
2022-08-08T09:01:27.306Z,97918.32199746437
2022-08-08T09:04:30.149Z,97913.78443452102
2022-08-08T09:07:23.130Z,97914.47941411883
2022-08-08T09:11:18.028Z,97906.02280227265
2022-08-08T09:14:21.869Z,97906.04872819665
2022-08-08T09:17:19.190Z,97906.04710152006
2022-08-08T09:22:01.480Z,97901.07135073934
2022-08-08T09:24:17.727Z,97899.515440754
2022-08-08T09:27:55.985Z,97905.54569615828
2022-08-08T09:31:42.357Z,97897.26124857677
2022-08-08T09:34:32.799Z,97896.92440634298
2022-08-08T09:37:56.986Z,97901.59351643467
2022-08-08T09:51:25.791Z,97892.62091725096
2022-08-08T09:54:19.645Z,97882.38016639465
2022-08-08T09:57:27.461Z,97880.14316046366
2022-08-08T10:01:59.245Z,97882.12428569817
2022-08-08T10:04:42.377Z,97878.03873581474
2022-08-08T10:07:27.013Z,97882.35447967885
2022-08-08T10:12:26.402Z,97881.73956690823
2022-08-08T10:14:28.453Z,97874.26838818572
2022-08-08T10:18:04.111Z,97874.61215205854
2022-08-08T10:21:51.890Z,97866.68176989899
2022-08-08T10:24:29.067Z,97867.91486213112
2022-08-08T10:27:26.436Z,97866.77165184205
2022-08-08T10:41:17.297Z,97848.58443216988
2022-08-08T10:44:23.621Z,97845.46629032532
2022-08-08T10:47:20.668Z,97834.59401697721
2022-08-08T10:51:17.189Z,97840.38012803307
2022-08-08T10:54:27.104Z,97832.84573956604
2022-08-08T10:57:17.244Z,97826.04154363876
2022-08-08T11:01:18.046Z,97825.16201853649
2022-08-08T11:04:17.650Z,97821.24461314752
2022-08-08T11:11:32.289Z,97810.87142956299
2022-08-08T11:14:16.579Z,97809.48665734075
2022-08-08T11:17:59.907Z,97807.59589752168
2022-08-08T11:21:19.361Z,97800.1017292764
2022-08-08T11:31:18.529Z,97793.22817877965
2022-08-08T11:34:24.130Z,97785.16311128979
2022-08-08T11:37:17.505Z,97782.84820530983
2022-08-08T11:41:18.169Z,97783.31647380686
2022-08-08T11:51:39.014Z,97767.4437268322
2022-08-08T12:01:17.300Z,97749.69524269892
2022-08-08T12:11:18.367Z,97724.36880325575
2022-08-08T12:21:20.828Z,97707.09446956535
2022-08-08T12:31:16.575Z,97713.09954177013
2022-08-08T12:42:01.316Z,97698.48658947839
2022-08-08T13:11:19.483Z,97672.41026124047
2022-08-08T13:51:33.369Z,97692.31027301474
2022-08-08T14:01:18.479Z,97722.5330661969
2022-08-08T14:21:21.070Z,98009.35877288567
2022-08-08T14:31:20.181Z,98085.28777879025
2022-08-08T14:34:23.006Z,97996.27678321685
2022-08-08T14:37:18.123Z,97939.38098908162
2022-08-08T14:41:45.565Z,97916.86778124985
2022-08-08T14:44:21.049Z,97906.50139989502
2022-08-08T14:51:17.878Z,97933.41480916458
2022-08-08T14:54:28.932Z,97930.97457017843
2022-08-08T14:57:16.688Z,97949.22332027824
2022-08-08T15:01:23.907Z,97950.67588497848
2022-08-08T15:04:16.849Z,97931.4253073896
2022-08-08T15:07:24.181Z,97935.91166174113
2022-08-08T15:11:20.491Z,97950.18136475493
2022-08-08T15:14:16.875Z,97930.2245581464
2022-08-08T15:17:17.325Z,97918.4285738679
2022-08-08T15:32:03.028Z,97875.12399883047
2022-08-08T15:34:28.888Z,97861.31299887746
2022-08-08T15:37:17.557Z,97841.87470474718
2022-08-08T15:41:16.874Z,97846.26939345353
2022-08-08T15:44:17.276Z,97858.33421006947
2022-08-08T15:47:19.014Z,97880.55371383984
2022-08-08T15:51:17.035Z,97924.11422365307
2022-08-08T15:54:37.616Z,97966.40826352368
2022-08-08T15:57:16.785Z,97996.12973143757
2022-08-08T16:01:16.915Z,98017.00228687856
2022-08-08T16:04:16.519Z,98020.84248301099
2022-08-08T16:07:16.743Z,98022.43621527424
2022-08-08T16:13:10.578Z,98028.83746925333
2022-08-08T16:14:16.316Z,98026.90675629055
2022-08-08T16:17:16.398Z,98039.91365852606
2022-08-08T16:21:26.059Z,98037.76495518701
2022-08-08T16:24:17.281Z,98043.83506391497
2022-08-08T16:27:17.942Z,98048.03636967472
2022-08-08T16:31:16.500Z,98056.54927527207
2022-08-08T16:34:19.096Z,98048.45799242688
2022-08-08T16:37:16.879Z,98038.72456179495
2022-08-08T16:41:18.443Z,98049.82621730492
2022-08-08T16:44:16.968Z,98054.22702672293
2022-08-08T16:47:21.724Z,98051.86120133966
2022-08-08T16:55:00.978Z,98036.51305724747
2022-08-08T16:58:11.763Z,98035.97023905211
2022-08-08T17:01:16.574Z,98030.92555295798
2022-08-08T17:04:17.303Z,98027.78926565709
2022-08-08T17:07:17.073Z,98028.97569302129
2022-08-08T17:11:16.749Z,98008.25400875912
2022-08-08T17:14:18.917Z,97996.17317010293
2022-08-08T17:17:22.842Z,97986.31589144545
2022-08-08T17:21:17.045Z,97980.02302976768
2022-08-08T17:24:26.899Z,97974.9457523502
2022-08-08T17:27:17.672Z,97971.39211876017
2022-08-08T17:31:44.924Z,97970.33901553159
2022-08-08T17:34:53.980Z,97968.07282553677
2022-08-08T17:37:19.134Z,97965.55820984703
2022-08-08T17:41:17.269Z,97956.63859267606
2022-08-08T17:44:18.040Z,97956.89781994137
2022-08-08T17:47:27.751Z,97960.63619045414
2022-08-08T17:51:18.013Z,97965.95858707497
2022-08-08T17:54:22.466Z,97959.18333108025
2022-08-08T17:57:16.704Z,97948.26917565157
2022-08-08T18:01:43.844Z,97957.13019283673
2022-08-08T18:04:20.437Z,97949.675694496
2022-08-08T18:08:02.323Z,97947.58047452995
2022-08-08T18:11:17.019Z,97952.40606185589
2022-08-08T18:14:18.849Z,97960.154182076
2022-08-08T18:17:17.655Z,97960.02293216699
2022-08-08T18:21:35.403Z,97950.40946234859
2022-08-08T18:24:19.680Z,97948.96319544059
2022-08-08T18:27:17.722Z,97953.43208536162
2022-08-08T18:31:15.861Z,97953.87442629569
2022-08-08T18:34:25.996Z,97943.25598433818
2022-08-08T18:37:33.651Z,97944.77875445528
2022-08-08T18:41:16.302Z,97939.4049279888
2022-08-08T18:44:16.227Z,97946.00408925382
2022-08-08T18:47:16.377Z,97940.7181170001
2022-08-08T18:51:48.701Z,97948.77176013331
2022-08-08T18:54:22.451Z,97945.08353875687
2022-08-08T18:57:17.712Z,97949.85258361467
2022-08-08T19:02:17.938Z,97945.66270221958
2022-08-08T19:04:17.244Z,97942.85743947247
2022-08-08T19:07:17.675Z,97948.29029668355
2022-08-08T19:11:17.308Z,97945.25650271164
2022-08-08T19:14:20.680Z,97946.66979715391
2022-08-08T19:17:29.612Z,97954.4289730655
2022-08-08T19:21:27.993Z,97956.70287380999
2022-08-08T19:24:33.973Z,97958.59028361014
2022-08-08T19:27:16.914Z,97956.73332755455
2022-08-08T19:31:17.248Z,97960.76769525194
2022-08-08T19:34:36.742Z,97965.63114085085
2022-08-08T19:37:17.736Z,97966.96706767693
2022-08-08T19:41:33.707Z,97970.48839080501
2022-08-08T19:44:42.422Z,97977.18084140182
2022-08-08T19:47:24.683Z,97986.3145048478
2022-08-08T19:51:16.862Z,97984.30598211012
2022-08-08T19:54:16.602Z,97986.2939852376
2022-08-08T19:57:16.809Z,97986.81432155764
2022-08-08T20:01:17.350Z,97995.87518610155
2022-08-08T20:04:16.576Z,97998.51801977614
2022-08-08T20:08:39.459Z,98000.4187794825
2022-08-08T20:11:16.751Z,97999.20228985739
2022-08-08T20:14:33.971Z,97995.31813789933
2022-08-08T20:17:28.131Z,98000.37526614797
2022-08-08T20:21:16.073Z,98007.52017710831
2022-08-08T20:24:16.837Z,98020.27130994922
2022-08-08T20:27:20.350Z,98012.11335499886
2022-08-08T20:31:19.012Z,98011.1300511904
2022-08-08T20:34:29.437Z,98010.14527689584
2022-08-08T20:37:16.463Z,98011.31952696509
2022-08-08T20:41:17.865Z,98005.24141663422
2022-08-08T20:44:17.410Z,98010.3220648552
2022-08-08T20:47:23.270Z,98009.13833586298
2022-08-08T20:51:16.218Z,98012.58894312133
2022-08-08T20:54:25.876Z,98014.19832127604
2022-08-08T20:57:19.214Z,98014.37377518587
2022-08-08T21:01:20.544Z,98021.77751550208
2022-08-08T21:04:16.959Z,98027.37458035989
2022-08-08T21:07:16.977Z,98023.9747715354
2022-08-08T21:11:15.878Z,98028.9342261149
2022-08-08T21:14:17.549Z,98034.08043247343
2022-08-08T21:17:16.301Z,98028.62350759954
2022-08-08T21:21:20.621Z,98032.55849704526
2022-08-08T21:24:29.640Z,98026.8546809012
2022-08-08T21:28:06.091Z,98025.31661845972
2022-08-08T21:31:22.591Z,98023.84671569396
2022-08-08T21:34:18.687Z,98025.83171887945
2022-08-08T21:37:55.495Z,98024.82518005121
2022-08-08T21:41:28.771Z,98027.85097728248
2022-08-08T21:44:17.817Z,98030.20992292151
2022-08-08T21:48:20.365Z,98028.96842024711
2022-08-08T21:51:15.731Z,98034.34208968992
2022-08-08T21:54:22.464Z,98032.39952125978
2022-08-08T21:57:16.109Z,98037.62563161604
2022-08-08T22:01:38.863Z,98035.96878442111
2022-08-08T22:04:16.539Z,98036.51031257615
2022-08-08T22:07:16.598Z,98037.45026661218
2022-08-08T22:11:48.215Z,98044.099066368
2022-08-08T22:14:16.371Z,98044.4702330112
2022-08-08T22:17:19.171Z,98037.69571720669
2022-08-08T22:21:16.306Z,98049.78995238121
2022-08-08T22:24:16.612Z,98049.88449292569
2022-08-08T22:27:16.541Z,98061.6322474504
2022-08-08T22:31:16.562Z,98068.71098203582
2022-08-08T22:34:16.427Z,98073.39131422434
2022-08-08T22:37:49.504Z,98075.60389621627
2022-08-08T22:41:21.531Z,98083.48005933143
2022-08-08T22:44:15.986Z,98084.29891571333
2022-08-08T22:47:18.128Z,98090.81632332208
2022-08-08T22:51:16.274Z,98090.31189435019
2022-08-08T22:54:31.160Z,98093.81220235734
2022-08-08T22:57:17.980Z,98089.23314777487
2022-08-08T23:02:01.859Z,98090.90264352609
2022-08-08T23:04:16.963Z,98085.81811280039
2022-08-08T23:11:16.234Z,98090.51378730702
2022-08-08T23:14:17.817Z,98087.91587133109
2022-08-08T23:17:16.851Z,98090.60948229233
2022-08-08T23:21:16.470Z,98085.48541622628
2022-08-08T23:24:22.774Z,98085.25392495461
2022-08-08T23:27:39.278Z,98081.68711337057
2022-08-08T23:31:16.107Z,98083.09732583855
2022-08-08T23:34:19.381Z,98082.52665699604
2022-08-08T23:37:16.566Z,98082.84013265927
2022-08-08T23:41:24.802Z,98080.64308450585
2022-08-08T23:44:16.564Z,98075.78604756697
2022-08-08T23:48:59.929Z,98073.60376716606
2022-08-08T23:51:42.449Z,98081.26031441877
2022-08-08T23:54:53.189Z,98074.39200649165
2022-08-08T23:57:27.864Z,98078.56476701159
